sensor_id;sensor_type;location;lat;lon;timestamp;pressure;altitude;pressure_sealevel;temperature;humidity
12358;BME280;6243;51.244;6.774;2023-07-20T00:01:15;115150.97;;;-141.28;60.79
12358;BME280;6243;51.244;6.774;2023-07-20T00:03:41;115150.97;;;-141.28;62.23
12358;BME280;6243;51.244;6.774;2023-07-20T00:06:08;115150.97;;;-141.28;63.30
12358;BME280;6243;51.244;6.774;2023-07-20T00:08:34;115150.97;;;-141.28;60.68
12358;BME280;6243;51.244;6.774;2023-07-20T00:10:59;115150.97;;;-141.28;61.69
12358;BME280;6243;51.244;6.774;2023-07-20T00:13:25;115150.97;;;-141.28;59.38
12358;BME280;6243;51.244;6.774;2023-07-20T00:15:51;115150.97;;;-141.28;58.84
12358;BME280;6243;51.244;6.774;2023-07-20T00:18:16;115150.97;;;-141.28;58.94
12358;BME280;6243;51.244;6.774;2023-07-20T00:20:42;115150.97;;;-141.28;58.32
12358;BME280;6243;51.244;6.774;2023-07-20T00:23:09;115150.97;;;-141.28;63.39
12358;BME280;6243;51.244;6.774;2023-07-20T00:25:34;115150.97;;;-141.28;63.90
12358;BME280;6243;51.244;6.774;2023-07-20T00:28:00;115150.97;;;-141.28;62.14
12358;BME280;6243;51.244;6.774;2023-07-20T00:30:25;115150.97;;;-141.28;62.14
12358;BME280;6243;51.244;6.774;2023-07-20T00:32:51;115150.97;;;-141.28;61.00
12358;BME280;6243;51.244;6.774;2023-07-20T00:35:16;115150.97;;;-141.28;64.11
12358;BME280;6243;51.244;6.774;2023-07-20T00:37:42;115150.97;;;-141.28;62.66
12358;BME280;6243;51.244;6.774;2023-07-20T00:40:09;115150.97;;;-141.28;64.16
12358;BME280;6243;51.244;6.774;2023-07-20T00:42:35;115150.97;;;-141.28;60.80
12358;BME280;6243;51.244;6.774;2023-07-20T00:45:01;115150.97;;;-141.28;61.66
12358;BME280;6243;51.244;6.774;2023-07-20T00:47:27;115150.97;;;-141.28;61.11
12358;BME280;6243;51.244;6.774;2023-07-20T00:49:52;115150.97;;;-141.28;62.90
12358;BME280;6243;51.244;6.774;2023-07-20T00:52:20;115150.97;;;-141.28;63.22
12358;BME280;6243;51.244;6.774;2023-07-20T00:54:47;115150.97;;;-141.28;62.10
12358;BME280;6243;51.244;6.774;2023-07-20T00:57:14;115150.97;;;-141.28;64.84
12358;BME280;6243;51.244;6.774;2023-07-20T00:59:40;115150.97;;;-141.28;69.26
12358;BME280;6243;51.244;6.774;2023-07-20T01:02:06;115150.97;;;-141.28;68.08
12358;BME280;6243;51.244;6.774;2023-07-20T01:04:31;115150.97;;;-141.28;66.36
12358;BME280;6243;51.244;6.774;2023-07-20T01:09:43;115150.97;;;-141.28;64.83
12358;BME280;6243;51.244;6.774;2023-07-20T01:12:17;115150.97;;;-141.28;68.75
12358;BME280;6243;51.244;6.774;2023-07-20T01:14:44;115150.97;;;-141.28;67.36
12358;BME280;6243;51.244;6.774;2023-07-20T01:17:10;115150.97;;;-141.28;69.90
12358;BME280;6243;51.244;6.774;2023-07-20T01:19:35;115150.97;;;-141.28;67.22
12358;BME280;6243;51.244;6.774;2023-07-20T01:22:06;115150.97;;;-141.28;75.41
12358;BME280;6243;51.244;6.774;2023-07-20T01:24:57;115150.97;;;-141.28;71.25
12358;BME280;6243;51.244;6.774;2023-07-20T01:27:51;115150.97;;;-141.28;71.32
12358;BME280;6243;51.244;6.774;2023-07-20T01:30:52;115150.97;;;-141.28;69.41
12358;BME280;6243;51.244;6.774;2023-07-20T01:33:24;115150.97;;;-141.28;66.23
12358;BME280;6243;51.244;6.774;2023-07-20T01:35:53;115150.97;;;-141.28;68.00
12358;BME280;6243;51.244;6.774;2023-07-20T01:38:20;115150.97;;;-141.28;66.45
12358;BME280;6243;51.244;6.774;2023-07-20T01:40:46;115150.97;;;-141.28;66.36
12358;BME280;6243;51.244;6.774;2023-07-20T01:43:12;115150.97;;;-141.28;65.00
12358;BME280;6243;51.244;6.774;2023-07-20T01:45:38;115150.97;;;-141.28;70.46
12358;BME280;6243;51.244;6.774;2023-07-20T01:48:04;115150.97;;;-141.28;73.58
12358;BME280;6243;51.244;6.774;2023-07-20T01:50:31;115150.97;;;-141.28;76.17
12358;BME280;6243;51.244;6.774;2023-07-20T01:52:56;115150.97;;;-141.28;71.79
12358;BME280;6243;51.244;6.774;2023-07-20T01:55:22;115150.97;;;-141.28;71.45
12358;BME280;6243;51.244;6.774;2023-07-20T01:57:47;115150.97;;;-141.28;70.24
12358;BME280;6243;51.244;6.774;2023-07-20T02:00:14;115150.97;;;-141.28;72.55
12358;BME280;6243;51.244;6.774;2023-07-20T02:02:39;115150.97;;;-141.28;76.55
12358;BME280;6243;51.244;6.774;2023-07-20T02:05:05;115150.97;;;-141.28;74.94
12358;BME280;6243;51.244;6.774;2023-07-20T02:07:32;115150.97;;;-141.28;71.79
12358;BME280;6243;51.244;6.774;2023-07-20T02:09:58;115150.97;;;-141.28;76.14
12358;BME280;6243;51.244;6.774;2023-07-20T02:12:23;115150.97;;;-141.28;75.82
12358;BME280;6243;51.244;6.774;2023-07-20T02:14:49;115150.97;;;-141.28;72.66
12358;BME280;6243;51.244;6.774;2023-07-20T02:17:14;115150.97;;;-141.28;71.83
12358;BME280;6243;51.244;6.774;2023-07-20T02:19:40;115150.97;;;-141.28;70.49
12358;BME280;6243;51.244;6.774;2023-07-20T02:22:06;115150.97;;;-141.28;69.65
12358;BME280;6243;51.244;6.774;2023-07-20T02:24:33;115150.97;;;-141.28;68.19
12358;BME280;6243;51.244;6.774;2023-07-20T02:26:58;115150.97;;;-141.28;66.06
12358;BME280;6243;51.244;6.774;2023-07-20T02:29:24;115150.97;;;-141.28;70.66
12358;BME280;6243;51.244;6.774;2023-07-20T02:31:49;115150.97;;;-141.28;72.61
12358;BME280;6243;51.244;6.774;2023-07-20T02:34:14;115150.97;;;-141.28;73.11
12358;BME280;6243;51.244;6.774;2023-07-20T02:36:40;115150.97;;;-141.28;71.57
12358;BME280;6243;51.244;6.774;2023-07-20T02:39:05;115150.97;;;-141.28;70.88
12358;BME280;6243;51.244;6.774;2023-07-20T02:41:33;115150.97;;;-141.28;68.40
12358;BME280;6243;51.244;6.774;2023-07-20T02:43:58;115150.97;;;-141.28;72.67
12358;BME280;6243;51.244;6.774;2023-07-20T02:46:24;115150.97;;;-141.28;69.69
12358;BME280;6243;51.244;6.774;2023-07-20T02:48:49;115150.97;;;-141.28;72.68
12358;BME280;6243;51.244;6.774;2023-07-20T02:51:15;115150.97;;;-141.28;69.40
12358;BME280;6243;51.244;6.774;2023-07-20T02:53:40;115150.97;;;-141.28;67.85
12358;BME280;6243;51.244;6.774;2023-07-20T02:56:06;115150.97;;;-141.28;69.91
12358;BME280;6243;51.244;6.774;2023-07-20T02:58:34;115150.97;;;-141.28;69.38
12358;BME280;6243;51.244;6.774;2023-07-20T03:00:59;115150.97;;;-141.28;70.66
12358;BME280;6243;51.244;6.774;2023-07-20T03:03:25;115150.97;;;-141.28;68.87
12358;BME280;6243;51.244;6.774;2023-07-20T03:05:50;115150.97;;;-141.28;68.07
12358;BME280;6243;51.244;6.774;2023-07-20T03:08:16;115150.97;;;-141.28;67.59
12358;BME280;6243;51.244;6.774;2023-07-20T03:10:41;115150.97;;;-141.28;68.29
12358;BME280;6243;51.244;6.774;2023-07-20T03:13:07;115150.97;;;-141.28;66.91
12358;BME280;6243;51.244;6.774;2023-07-20T03:15:34;115150.97;;;-141.28;73.82
12358;BME280;6243;51.244;6.774;2023-07-20T03:17:59;115150.97;;;-141.28;70.19
12358;BME280;6243;51.244;6.774;2023-07-20T03:20:25;115150.97;;;-141.28;74.14
12358;BME280;6243;51.244;6.774;2023-07-20T03:22:50;115150.97;;;-141.28;73.60
12358;BME280;6243;51.244;6.774;2023-07-20T03:25:16;115150.97;;;-141.28;71.28
12358;BME280;6243;51.244;6.774;2023-07-20T03:27:41;115150.97;;;-141.28;75.85
12358;BME280;6243;51.244;6.774;2023-07-20T03:30:07;115150.97;;;-141.28;72.33
12358;BME280;6243;51.244;6.774;2023-07-20T03:32:34;115150.97;;;-141.28;70.37
12358;BME280;6243;51.244;6.774;2023-07-20T03:35:00;115150.97;;;-141.28;69.68
12358;BME280;6243;51.244;6.774;2023-07-20T03:37:26;115150.97;;;-141.28;73.26
12358;BME280;6243;51.244;6.774;2023-07-20T03:39:51;115150.97;;;-141.28;70.61
12358;BME280;6243;51.244;6.774;2023-07-20T03:42:17;115150.97;;;-141.28;69.47
12358;BME280;6243;51.244;6.774;2023-07-20T03:44:42;115150.97;;;-141.28;68.03
12358;BME280;6243;51.244;6.774;2023-07-20T03:47:08;115150.97;;;-141.28;67.51
12358;BME280;6243;51.244;6.774;2023-07-20T03:49:34;115150.97;;;-141.28;68.84
12358;BME280;6243;51.244;6.774;2023-07-20T03:52:00;115150.97;;;-141.28;67.20
12358;BME280;6243;51.244;6.774;2023-07-20T03:54:26;115150.97;;;-141.28;68.36
12358;BME280;6243;51.244;6.774;2023-07-20T03:56:51;115150.97;;;-141.28;67.05
12358;BME280;6243;51.244;6.774;2023-07-20T03:59:17;115150.97;;;-141.28;66.79
12358;BME280;6243;51.244;6.774;2023-07-20T04:01:42;115150.97;;;-141.28;66.84
12358;BME280;6243;51.244;6.774;2023-07-20T04:04:08;115150.97;;;-141.28;67.69
12358;BME280;6243;51.244;6.774;2023-07-20T04:06:35;115150.97;;;-141.28;67.85
12358;BME280;6243;51.244;6.774;2023-07-20T04:09:00;115150.97;;;-141.28;66.91
12358;BME280;6243;51.244;6.774;2023-07-20T04:11:25;115150.97;;;-141.28;66.31
12358;BME280;6243;51.244;6.774;2023-07-20T04:13:51;115150.97;;;-141.28;67.98
12358;BME280;6243;51.244;6.774;2023-07-20T04:16:16;115150.97;;;-141.28;66.65
12358;BME280;6243;51.244;6.774;2023-07-20T04:18:42;115150.97;;;-141.28;66.96
12358;BME280;6243;51.244;6.774;2023-07-20T04:21:08;115150.97;;;-141.28;66.04
12358;BME280;6243;51.244;6.774;2023-07-20T04:23:35;115150.97;;;-141.28;67.09
12358;BME280;6243;51.244;6.774;2023-07-20T04:26:00;115150.97;;;-141.28;66.18
12358;BME280;6243;51.244;6.774;2023-07-20T04:28:26;115150.97;;;-141.28;66.11
12358;BME280;6243;51.244;6.774;2023-07-20T04:30:52;115150.97;;;-141.28;65.81
12358;BME280;6243;51.244;6.774;2023-07-20T04:33:17;115150.97;;;-141.28;66.19
12358;BME280;6243;51.244;6.774;2023-07-20T04:35:50;115150.97;;;-141.28;67.59
12358;BME280;6243;51.244;6.774;2023-07-20T04:38:16;115150.97;;;-141.28;66.96
12358;BME280;6243;51.244;6.774;2023-07-20T04:40:44;115150.97;;;-141.28;66.38
12358;BME280;6243;51.244;6.774;2023-07-20T04:43:09;115150.97;;;-141.28;66.34
12358;BME280;6243;51.244;6.774;2023-07-20T04:45:35;115150.97;;;-141.28;66.28
12358;BME280;6243;51.244;6.774;2023-07-20T04:48:00;115150.97;;;-141.28;66.44
12358;BME280;6243;51.244;6.774;2023-07-20T04:50:26;115150.97;;;-141.28;66.78
12358;BME280;6243;51.244;6.774;2023-07-20T04:52:51;115150.97;;;-141.28;65.71
12358;BME280;6243;51.244;6.774;2023-07-20T04:55:17;115150.97;;;-141.28;65.77
12358;BME280;6243;51.244;6.774;2023-07-20T04:57:44;115150.97;;;-141.28;66.53
12358;BME280;6243;51.244;6.774;2023-07-20T05:00:11;115150.97;;;-141.28;71.15
12358;BME280;6243;51.244;6.774;2023-07-20T05:02:37;115150.97;;;-141.28;70.84
12358;BME280;6243;51.244;6.774;2023-07-20T05:05:03;115150.97;;;-141.28;68.17
12358;BME280;6243;51.244;6.774;2023-07-20T05:07:28;115150.97;;;-141.28;67.08
12358;BME280;6243;51.244;6.774;2023-07-20T05:09:54;115150.97;;;-141.28;68.59
12358;BME280;6243;51.244;6.774;2023-07-20T05:12:19;115150.97;;;-141.28;66.26
12358;BME280;6243;51.244;6.774;2023-07-20T05:14:46;115150.97;;;-141.28;67.40
12358;BME280;6243;51.244;6.774;2023-07-20T05:17:12;115150.97;;;-141.28;66.51
12358;BME280;6243;51.244;6.774;2023-07-20T05:19:37;115150.97;;;-141.28;69.00
12358;BME280;6243;51.244;6.774;2023-07-20T05:22:03;115150.97;;;-141.28;66.77
12358;BME280;6243;51.244;6.774;2023-07-20T05:24:29;115150.97;;;-141.28;67.12
12358;BME280;6243;51.244;6.774;2023-07-20T05:26:54;115150.97;;;-141.28;65.94
12358;BME280;6243;51.244;6.774;2023-07-20T05:29:20;115150.97;;;-141.28;66.95
12358;BME280;6243;51.244;6.774;2023-07-20T05:31:47;115150.97;;;-141.28;65.50
12358;BME280;6243;51.244;6.774;2023-07-20T05:34:12;115150.97;;;-141.28;65.77
12358;BME280;6243;51.244;6.774;2023-07-20T05:36:38;115150.97;;;-141.28;64.83
12358;BME280;6243;51.244;6.774;2023-07-20T05:39:03;115150.97;;;-141.28;64.58
12358;BME280;6243;51.244;6.774;2023-07-20T05:41:29;115150.97;;;-141.28;65.74
12358;BME280;6243;51.244;6.774;2023-07-20T05:43:54;115150.97;;;-141.28;67.00
12358;BME280;6243;51.244;6.774;2023-07-20T05:46:20;115150.97;;;-141.28;65.37
12358;BME280;6243;51.244;6.774;2023-07-20T05:48:46;115150.97;;;-141.28;65.35
12358;BME280;6243;51.244;6.774;2023-07-20T05:51:12;115150.97;;;-141.28;64.76
12358;BME280;6243;51.244;6.774;2023-07-20T05:53:37;115150.97;;;-141.28;65.09
12358;BME280;6243;51.244;6.774;2023-07-20T05:56:03;115150.97;;;-141.28;64.82
12358;BME280;6243;51.244;6.774;2023-07-20T05:58:29;115150.97;;;-141.28;64.66
12358;BME280;6243;51.244;6.774;2023-07-20T06:00:54;115150.97;;;-141.28;64.71
12358;BME280;6243;51.244;6.774;2023-07-20T06:03:20;115150.97;;;-141.28;63.81
12358;BME280;6243;51.244;6.774;2023-07-20T06:05:47;115150.97;;;-141.28;63.72
12358;BME280;6243;51.244;6.774;2023-07-20T06:08:12;115150.97;;;-141.28;68.55
12358;BME280;6243;51.244;6.774;2023-07-20T06:10:38;115150.97;;;-141.28;64.31
12358;BME280;6243;51.244;6.774;2023-07-20T06:13:03;115150.97;;;-141.28;64.63
12358;BME280;6243;51.244;6.774;2023-07-20T06:15:31;115150.97;;;-141.28;64.75
12358;BME280;6243;51.244;6.774;2023-07-20T06:17:57;115150.97;;;-141.28;63.32
12358;BME280;6243;51.244;6.774;2023-07-20T06:20:22;115150.97;;;-141.28;61.97
12358;BME280;6243;51.244;6.774;2023-07-20T06:22:49;115150.97;;;-141.28;62.73
12358;BME280;6243;51.244;6.774;2023-07-20T06:25:15;115150.97;;;-141.28;62.05
12358;BME280;6243;51.244;6.774;2023-07-20T06:27:42;115150.97;;;-141.28;60.84
12358;BME280;6243;51.244;6.774;2023-07-20T06:30:08;115150.97;;;-141.28;58.92
12358;BME280;6243;51.244;6.774;2023-07-20T06:32:34;115150.97;;;-141.28;58.09
12358;BME280;6243;51.244;6.774;2023-07-20T06:34:59;115150.97;;;-141.28;57.67
12358;BME280;6243;51.244;6.774;2023-07-20T06:37:25;115150.97;;;-141.28;58.64
12358;BME280;6243;51.244;6.774;2023-07-20T06:39:52;115150.97;;;-141.28;57.63
12358;BME280;6243;51.244;6.774;2023-07-20T06:42:17;115150.97;;;-141.28;56.46
12358;BME280;6243;51.244;6.774;2023-07-20T06:44:43;115150.97;;;-141.28;57.69
12358;BME280;6243;51.244;6.774;2023-07-20T06:47:08;115150.97;;;-141.28;56.19
12358;BME280;6243;51.244;6.774;2023-07-20T06:49:34;115150.97;;;-141.28;55.14
12358;BME280;6243;51.244;6.774;2023-07-20T06:51:59;115150.97;;;-141.28;54.94
12358;BME280;6243;51.244;6.774;2023-07-20T06:54:25;115150.97;;;-141.28;53.75
12358;BME280;6243;51.244;6.774;2023-07-20T06:56:52;115150.97;;;-141.28;52.71
12358;BME280;6243;51.244;6.774;2023-07-20T06:59:18;115150.97;;;-141.28;53.30
12358;BME280;6243;51.244;6.774;2023-07-20T07:01:44;115150.97;;;-141.28;54.06
12358;BME280;6243;51.244;6.774;2023-07-20T07:04:09;115150.97;;;-141.28;53.54
12358;BME280;6243;51.244;6.774;2023-07-20T07:06:35;115150.97;;;-141.28;53.80
12358;BME280;6243;51.244;6.774;2023-07-20T07:09:00;115150.97;;;-141.28;52.86
12358;BME280;6243;51.244;6.774;2023-07-20T07:11:26;115150.97;;;-141.28;52.66
12358;BME280;6243;51.244;6.774;2023-07-20T07:13:52;115150.97;;;-141.28;51.94
12358;BME280;6243;51.244;6.774;2023-07-20T07:16:18;115150.97;;;-141.28;51.79
12358;BME280;6243;51.244;6.774;2023-07-20T07:18:43;115150.97;;;-141.28;51.46
12358;BME280;6243;51.244;6.774;2023-07-20T07:21:09;115150.97;;;-141.28;50.67
12358;BME280;6243;51.244;6.774;2023-07-20T07:23:34;115150.97;;;-141.28;49.94
12358;BME280;6243;51.244;6.774;2023-07-20T07:26:00;115150.97;;;-141.28;50.41
12358;BME280;6243;51.244;6.774;2023-07-20T07:28:26;115150.97;;;-141.28;48.59
12358;BME280;6243;51.244;6.774;2023-07-20T07:30:54;115150.97;;;-141.28;48.38
12358;BME280;6243;51.244;6.774;2023-07-20T07:33:20;115150.97;;;-141.28;47.71
12358;BME280;6243;51.244;6.774;2023-07-20T07:35:46;115150.97;;;-141.28;47.71
12358;BME280;6243;51.244;6.774;2023-07-20T07:38:11;115150.97;;;-141.28;47.38
12358;BME280;6243;51.244;6.774;2023-07-20T07:40:37;115150.97;;;-141.28;46.70
12358;BME280;6243;51.244;6.774;2023-07-20T07:43:02;115150.97;;;-141.28;46.82
12358;BME280;6243;51.244;6.774;2023-07-20T07:45:28;115150.97;;;-141.28;46.11
12358;BME280;6243;51.244;6.774;2023-07-20T07:47:55;115150.97;;;-141.28;45.86
12358;BME280;6243;51.244;6.774;2023-07-20T07:50:21;115150.97;;;-141.28;45.83
12358;BME280;6243;51.244;6.774;2023-07-20T07:52:46;115150.97;;;-141.28;46.13
12358;BME280;6243;51.244;6.774;2023-07-20T07:55:12;115150.97;;;-141.28;46.53
12358;BME280;6243;51.244;6.774;2023-07-20T07:57:38;115150.97;;;-141.28;45.47
12358;BME280;6243;51.244;6.774;2023-07-20T08:00:04;115150.97;;;-141.28;45.61
12358;BME280;6243;51.244;6.774;2023-07-20T08:02:30;115150.97;;;-141.28;45.19
12358;BME280;6243;51.244;6.774;2023-07-20T08:04:57;115150.97;;;-141.28;44.04
12358;BME280;6243;51.244;6.774;2023-07-20T08:07:23;115150.97;;;-141.28;43.95
12358;BME280;6243;51.244;6.774;2023-07-20T08:09:48;115150.97;;;-141.28;44.09
12358;BME280;6243;51.244;6.774;2023-07-20T08:12:14;115150.97;;;-141.28;43.85
12358;BME280;6243;51.244;6.774;2023-07-20T08:14:39;115150.97;;;-141.28;43.88
12358;BME280;6243;51.244;6.774;2023-07-20T08:17:05;115150.97;;;-141.28;43.75
12358;BME280;6243;51.244;6.774;2023-07-20T08:19:30;115150.97;;;-141.28;43.29
12358;BME280;6243;51.244;6.774;2023-07-20T08:21:57;115150.97;;;-141.28;43.06
12358;BME280;6243;51.244;6.774;2023-07-20T08:24:23;115150.97;;;-141.28;43.01
12358;BME280;6243;51.244;6.774;2023-07-20T08:26:48;115150.97;;;-141.28;43.38
12358;BME280;6243;51.244;6.774;2023-07-20T08:29:14;115150.97;;;-141.28;42.03
12358;BME280;6243;51.244;6.774;2023-07-20T08:31:39;115150.97;;;-141.28;41.52
12358;BME280;6243;51.244;6.774;2023-07-20T08:34:05;115150.97;;;-141.28;40.79
12358;BME280;6243;51.244;6.774;2023-07-20T08:36:30;115150.97;;;-141.28;40.68
12358;BME280;6243;51.244;6.774;2023-07-20T08:38:57;115150.97;;;-141.28;40.82
12358;BME280;6243;51.244;6.774;2023-07-20T08:41:22;115150.97;;;-141.28;41.24
12358;BME280;6243;51.244;6.774;2023-07-20T08:43:48;115150.97;;;-141.28;41.12
12358;BME280;6243;51.244;6.774;2023-07-20T08:46:14;115150.97;;;-141.28;41.71
12358;BME280;6243;51.244;6.774;2023-07-20T08:48:42;115150.97;;;-141.28;41.40
12358;BME280;6243;51.244;6.774;2023-07-20T08:51:08;115150.97;;;-141.28;40.54
12358;BME280;6243;51.244;6.774;2023-07-20T08:53:35;115150.97;;;-141.28;40.49
12358;BME280;6243;51.244;6.774;2023-07-20T08:56:04;115150.97;;;-141.28;40.38
12358;BME280;6243;51.244;6.774;2023-07-20T08:58:30;115150.97;;;-141.28;39.93
12358;BME280;6243;51.244;6.774;2023-07-20T09:00:58;115150.97;;;-141.28;39.22
12358;BME280;6243;51.244;6.774;2023-07-20T09:03:24;115150.97;;;-141.28;40.48
12358;BME280;6243;51.244;6.774;2023-07-20T09:05:50;115150.97;;;-141.28;38.82
12358;BME280;6243;51.244;6.774;2023-07-20T09:08:15;115150.97;;;-141.28;39.22
12358;BME280;6243;51.244;6.774;2023-07-20T09:10:41;115150.97;;;-141.28;38.71
12358;BME280;6243;51.244;6.774;2023-07-20T09:13:08;115150.97;;;-141.28;38.86
12358;BME280;6243;51.244;6.774;2023-07-20T09:15:34;115150.97;;;-141.28;38.43
12358;BME280;6243;51.244;6.774;2023-07-20T09:18:01;115150.97;;;-141.28;38.91
12358;BME280;6243;51.244;6.774;2023-07-20T09:20:31;115150.97;;;-141.28;38.11
12358;BME280;6243;51.244;6.774;2023-07-20T09:22:57;115150.97;;;-141.28;38.48
12358;BME280;6243;51.244;6.774;2023-07-20T09:25:22;115150.97;;;-141.28;38.00
12358;BME280;6243;51.244;6.774;2023-07-20T09:27:49;115150.97;;;-141.28;37.87
12358;BME280;6243;51.244;6.774;2023-07-20T09:30:16;115150.97;;;-141.28;37.59
12358;BME280;6243;51.244;6.774;2023-07-20T09:32:43;115150.97;;;-141.28;36.99
12358;BME280;6243;51.244;6.774;2023-07-20T09:35:19;115150.97;;;-141.28;37.09
12358;BME280;6243;51.244;6.774;2023-07-20T09:37:46;115150.97;;;-141.28;37.59
12358;BME280;6243;51.244;6.774;2023-07-20T09:40:15;115150.97;;;-141.28;37.58
12358;BME280;6243;51.244;6.774;2023-07-20T09:42:40;115150.97;;;-141.28;36.40
12358;BME280;6243;51.244;6.774;2023-07-20T09:45:07;115150.97;;;-141.28;36.04
12358;BME280;6243;51.244;6.774;2023-07-20T09:47:35;115150.97;;;-141.28;36.02
12358;BME280;6243;51.244;6.774;2023-07-20T09:50:01;115150.97;;;-141.28;35.93
12358;BME280;6243;51.244;6.774;2023-07-20T09:52:27;115150.97;;;-141.28;35.71
12358;BME280;6243;51.244;6.774;2023-07-20T09:54:54;115150.97;;;-141.28;34.80
12358;BME280;6243;51.244;6.774;2023-07-20T09:57:21;115150.97;;;-141.28;35.38
12358;BME280;6243;51.244;6.774;2023-07-20T09:59:46;115150.97;;;-141.28;35.33
12358;BME280;6243;51.244;6.774;2023-07-20T10:02:20;115150.97;;;-141.28;36.32
12358;BME280;6243;51.244;6.774;2023-07-20T10:04:49;115150.97;;;-141.28;36.38
12358;BME280;6243;51.244;6.774;2023-07-20T10:07:18;115150.97;;;-141.28;35.38
12358;BME280;6243;51.244;6.774;2023-07-20T10:09:45;115150.97;;;-141.28;35.03
12358;BME280;6243;51.244;6.774;2023-07-20T10:12:10;115150.97;;;-141.28;34.99
12358;BME280;6243;51.244;6.774;2023-07-20T10:14:40;115150.97;;;-141.28;35.42
12358;BME280;6243;51.244;6.774;2023-07-20T10:17:11;115150.97;;;-141.28;33.67
12358;BME280;6243;51.244;6.774;2023-07-20T10:19:42;115150.97;;;-141.28;33.82
12358;BME280;6243;51.244;6.774;2023-07-20T10:22:12;115150.97;;;-141.28;34.26
12358;BME280;6243;51.244;6.774;2023-07-20T10:24:39;115150.97;;;-141.28;33.82
12358;BME280;6243;51.244;6.774;2023-07-20T10:27:07;115150.97;;;-141.28;34.01
12358;BME280;6243;51.244;6.774;2023-07-20T10:29:33;115150.97;;;-141.28;33.04
12358;BME280;6243;51.244;6.774;2023-07-20T10:31:59;115150.97;;;-141.28;33.62
12358;BME280;6243;51.244;6.774;2023-07-20T10:34:26;115150.97;;;-141.28;33.55
12358;BME280;6243;51.244;6.774;2023-07-20T10:36:51;115150.97;;;-141.28;33.80
12358;BME280;6243;51.244;6.774;2023-07-20T10:39:25;115150.97;;;-141.28;33.47
12358;BME280;6243;51.244;6.774;2023-07-20T10:41:59;115150.97;;;-141.28;32.99
12358;BME280;6243;51.244;6.774;2023-07-20T10:44:26;115150.97;;;-141.28;33.79
12358;BME280;6243;51.244;6.774;2023-07-20T10:46:59;115150.97;;;-141.28;34.37
12358;BME280;6243;51.244;6.774;2023-07-20T10:49:25;115150.97;;;-141.28;34.20
12358;BME280;6243;51.244;6.774;2023-07-20T10:51:56;115150.97;;;-141.28;33.17
12358;BME280;6243;51.244;6.774;2023-07-20T10:54:50;115150.97;;;-141.28;33.27
12358;BME280;6243;51.244;6.774;2023-07-20T10:57:23;115150.97;;;-141.28;32.74
12358;BME280;6243;51.244;6.774;2023-07-20T10:59:49;115150.97;;;-141.28;33.25
12358;BME280;6243;51.244;6.774;2023-07-20T11:02:17;115150.97;;;-141.28;32.96
12358;BME280;6243;51.244;6.774;2023-07-20T11:04:45;115150.97;;;-141.28;33.31
12358;BME280;6243;51.244;6.774;2023-07-20T11:07:15;115150.97;;;-141.28;32.86
12358;BME280;6243;51.244;6.774;2023-07-20T11:09:41;115150.97;;;-141.28;33.06
12358;BME280;6243;51.244;6.774;2023-07-20T11:12:12;115150.97;;;-141.28;32.77
12358;BME280;6243;51.244;6.774;2023-07-20T11:14:40;115150.97;;;-141.28;32.43
12358;BME280;6243;51.244;6.774;2023-07-20T11:17:11;115150.97;;;-141.28;32.48
12358;BME280;6243;51.244;6.774;2023-07-20T11:19:37;115150.97;;;-141.28;33.18
12358;BME280;6243;51.244;6.774;2023-07-20T11:22:04;115150.97;;;-141.28;32.43
12358;BME280;6243;51.244;6.774;2023-07-20T11:24:31;115150.97;;;-141.28;32.76
12358;BME280;6243;51.244;6.774;2023-07-20T11:26:57;115150.97;;;-141.28;32.74
12358;BME280;6243;51.244;6.774;2023-07-20T11:29:24;115150.97;;;-141.28;31.90
12358;BME280;6243;51.244;6.774;2023-07-20T11:31:49;115150.97;;;-141.28;32.43
12358;BME280;6243;51.244;6.774;2023-07-20T11:34:16;115150.97;;;-141.28;32.97
12358;BME280;6243;51.244;6.774;2023-07-20T11:36:43;115150.97;;;-141.28;32.91
12358;BME280;6243;51.244;6.774;2023-07-20T11:39:09;115150.97;;;-141.28;31.81
12358;BME280;6243;51.244;6.774;2023-07-20T11:41:35;115150.97;;;-141.28;32.10
12358;BME280;6243;51.244;6.774;2023-07-20T11:44:01;115150.97;;;-141.28;32.96
12358;BME280;6243;51.244;6.774;2023-07-20T11:46:29;115150.97;;;-141.28;32.70
12358;BME280;6243;51.244;6.774;2023-07-20T11:48:57;115150.97;;;-141.28;32.88
12358;BME280;6243;51.244;6.774;2023-07-20T11:51:24;115150.97;;;-141.28;32.50
12358;BME280;6243;51.244;6.774;2023-07-20T11:53:50;115150.97;;;-141.28;31.36
12358;BME280;6243;51.244;6.774;2023-07-20T11:56:15;115150.97;;;-141.28;32.36
12358;BME280;6243;51.244;6.774;2023-07-20T11:58:44;115150.97;;;-141.28;31.99
12358;BME280;6243;51.244;6.774;2023-07-20T12:01:11;115150.97;;;-141.28;31.61
12358;BME280;6243;51.244;6.774;2023-07-20T12:03:39;115150.97;;;-141.28;31.79
12358;BME280;6243;51.244;6.774;2023-07-20T12:06:07;115150.97;;;-141.28;31.38
12358;BME280;6243;51.244;6.774;2023-07-20T12:08:33;115150.97;;;-141.28;30.83
12358;BME280;6243;51.244;6.774;2023-07-20T12:10:59;115150.97;;;-141.28;31.28
12358;BME280;6243;51.244;6.774;2023-07-20T12:13:35;115150.97;;;-141.28;31.38
12358;BME280;6243;51.244;6.774;2023-07-20T12:16:08;115150.97;;;-141.28;31.19
12358;BME280;6243;51.244;6.774;2023-07-20T12:18:35;115150.97;;;-141.28;31.85
12358;BME280;6243;51.244;6.774;2023-07-20T12:21:02;115150.97;;;-141.28;31.84
12358;BME280;6243;51.244;6.774;2023-07-20T12:23:35;115150.97;;;-141.28;31.25
12358;BME280;6243;51.244;6.774;2023-07-20T12:26:00;115150.97;;;-141.28;32.47
12358;BME280;6243;51.244;6.774;2023-07-20T12:28:26;115150.97;;;-141.28;32.62
12358;BME280;6243;51.244;6.774;2023-07-20T12:30:51;115150.97;;;-141.28;31.76
12358;BME280;6243;51.244;6.774;2023-07-20T12:33:17;115150.97;;;-141.28;32.17
12358;BME280;6243;51.244;6.774;2023-07-20T12:35:43;115150.97;;;-141.28;31.52
12358;BME280;6243;51.244;6.774;2023-07-20T12:38:10;115150.97;;;-141.28;31.06
12358;BME280;6243;51.244;6.774;2023-07-20T12:40:35;115150.97;;;-141.28;31.40